Orinda, CA

12:14 AM PDT on August 20, 2014 (GMT -0700)
Country Club | Change Station
CLOSE
Current Station
Personal Weather Station
Location: Orinda, CA
Elevation: 700 ft
Nearby Weather Stations

Elev 700 ft 37.89 °N, 122.19 °W | Updated 19 days ago

Clear
Clear
58 °F
Feels Like 58 °F
N
10
Wind Variable Wind from SW
Gusts 12 mph

Today
High -- | Low -- °F
--% Chance of Precip.
Yesterday
High -- | Low -- °F
Precip. -- in
6:28 AM 7:55 PM
Waning Crescent, 24% visible
Pressure 29.80 in
Visibility 10.0 miles
Clouds Few 1500 ft
Dew Point 57 °F
Humidity 94%
Rainfall -999.00 in
Snow Depth Not available.
UV 0 out of 12
Pollen 4.90 out of 12
Ozone Good
PM2.5 Good
Flu Activity Not available.
METAR KCCR 200653Z 25007KT 10SM FEW015 17/14 A2984 RMK AO2 SLP091 T01670139

More Conditions Fewer Conditions

Pressure 29.80 in
Visibility 10.0 miles
Clouds Few 1500 ft
Dew Point 57 °F
Humidity 94%
Rainfall -999.00 in
Snow Depth Not available.
UV 0 out of 12
Pollen 4.90 out of 12
Ozone Good
PM2.5 Good
Flu Activity Not available.
METAR KCCR 200653Z 25007KT 10SM FEW015 17/14 A2984 RMK AO2 SLP091 T01670139

More Conditions Fewer Conditions

10-Day Weather Forecast

Almanac

Astronomy

Aug. 20, 2014 Rise Set
Actual Time 6:28 AM PDT 7:55 PM PDT
Civil Twilight 6:00 AM PDT 8:22 PM PDT
Nautical Twilight 5:27 AM PDT 8:55 PM PDT
Astronomical Twilight 4:52 AM PDT 9:30 PM PDT
Moon 2:14 AM PDT 4:42 PM PDT
Length of Visible Light 14h 21m
Length of Day
13h 26m
Tomorrow will be 2m 12s shorter.
Waning Crescent, 24% of the Moon is Illuminated
Today
Waning Crescent
Aug 25
New
Sep 2
First Quarter
Sep 8
Full
Sep 15
Last Quarter

Today's Extremes

State Highs State Lows

Community

WunderPhotos

Upload Photos

1,745,592 photos uploaded!

Nearby

Air Quality

  Air Quality AQ Index Pollutant
Yesterday Good
OZONE
Yesterday Good
PM2.5
Current Good
OZONE
Current Good
PM2.5
Tuesday Good
OZONE
Wednesday Good
OZONE
Thursday Good
OZONE
Friday Good
OZONE
Saturday Good
OZONE
Sunday Good
OZONE

Snow Depth

Station Depth Elevation
Blue Lakes 0 in 8000 ft
Echo Peak 1 in 7800 ft
Forestdale Creek 0 in 8029 ft
Hagan's Meadow 0 in 8000 ft
CSS Lab 5 in 6900 ft

Earthquake Activity

City Distance Mag. Time & Date
King City, California 131 miles 2.9 8:01 PM PDT
2014-08-14
The Geysers, California 68 miles 2.6 8:55 PM PDT
2014-08-13
Upper Lake, California 107 miles 2.9 3:32 PM PDT
2014-08-13
Minimum magnitude displayed is 2.5.

Coastal Water Temperatures

Place Temperature
San Francisco, CA 64.0 °F
Richmond, CA 66.0 °F
Port Chicago, CA 70.0 °F

Nearby Weather Stations